createdAt,value
2022-09-25T00:01:17.658Z,12.60
2022-09-25T00:03:48.198Z,12.50
2022-09-25T00:06:16.388Z,13.02
2022-09-25T00:08:46.297Z,12.27
2022-09-25T00:11:17.678Z,12.50
2022-09-25T00:13:45.994Z,11.80
2022-09-25T00:16:21.317Z,12.32
2022-09-25T00:19:09.293Z,11.82
2022-09-25T00:21:38.657Z,12.02
2022-09-25T00:24:09.625Z,10.77
2022-09-25T00:26:40.036Z,11.05
2022-09-25T00:29:08.858Z,11.10
2022-09-25T00:31:35.735Z,10.90
2022-09-25T00:34:05.482Z,10.82
2022-09-25T00:36:33.990Z,10.25
2022-09-25T00:39:01.249Z,10.52
2022-09-25T00:41:31.653Z,10.25
2022-09-25T00:44:03.390Z,10.45
2022-09-25T00:46:31.881Z,10.85
2022-09-25T00:49:19.028Z,10.95
2022-09-25T00:51:50.702Z,10.88
2022-09-25T00:56:52.445Z,10.43
2022-09-25T00:59:28.001Z,9.75
2022-09-25T01:01:55.766Z,10.18
2022-09-25T01:04:28.875Z,10.15
2022-09-25T01:06:56.307Z,10.30
2022-09-25T01:09:23.697Z,9.88
2022-09-25T01:11:54.744Z,9.93
2022-09-25T01:14:22.402Z,9.70
2022-09-25T01:17:13.021Z,10.23
2022-09-25T01:20:14.239Z,10.30
2022-09-25T01:23:06.032Z,10.18
2022-09-25T01:25:36.472Z,10.10
2022-09-25T01:28:28.190Z,10.02
2022-09-25T01:31:05.219Z,10.73
2022-09-25T01:33:39.343Z,10.80
2022-09-25T01:36:27.050Z,10.52
2022-09-25T01:39:03.180Z,10.07
2022-09-25T01:41:45.257Z,11.18
2022-09-25T01:44:18.148Z,10.90
2022-09-25T01:46:51.749Z,11.00
2022-09-25T01:49:33.577Z,11.55
2022-09-25T01:52:03.344Z,11.48
2022-09-25T01:54:37.128Z,11.80
2022-09-25T01:57:12.610Z,10.80
2022-09-25T01:59:50.001Z,12.45
2022-09-25T02:02:28.001Z,11.70
2022-09-25T02:05:02.744Z,11.60
2022-09-25T02:07:37.577Z,12.30
2022-09-25T02:10:40.168Z,12.32
2022-09-25T02:13:13.266Z,12.38
2022-09-25T02:15:54.898Z,12.32
2022-09-25T02:18:43.639Z,12.02
2022-09-25T02:21:26.684Z,12.48
2022-09-25T02:24:17.073Z,11.50
2022-09-25T02:26:44.040Z,11.88
2022-09-25T02:29:12.948Z,12.68
2022-09-25T02:31:48.445Z,12.23
2022-09-25T02:34:16.542Z,12.43
2022-09-25T02:36:44.930Z,12.23
2022-09-25T02:39:15.523Z,12.18
2022-09-25T02:42:01.559Z,12.90
2022-09-25T02:44:37.677Z,11.93
2022-09-25T02:47:19.973Z,13.00
2022-09-25T02:50:17.968Z,13.13
2022-09-25T02:52:59.213Z,12.32
2022-09-25T02:55:40.392Z,12.85
2022-09-25T02:58:35.502Z,12.15
2022-09-25T03:01:05.625Z,12.20
2022-09-25T03:03:35.466Z,12.45
2022-09-25T03:06:03.939Z,12.80
2022-09-25T03:08:41.673Z,12.30
2022-09-25T03:11:15.019Z,13.35
2022-09-25T03:13:42.972Z,13.00
2022-09-25T03:16:12.901Z,12.48
2022-09-25T03:18:42.296Z,12.70
2022-09-25T03:21:09.696Z,12.52
2022-09-25T03:23:36.797Z,11.60
2022-09-25T03:26:04.775Z,12.15
2022-09-25T03:28:33.089Z,14.70
2022-09-25T03:31:01.520Z,14.00
2022-09-25T03:33:30.928Z,14.57
2022-09-25T03:36:06.351Z,15.10
2022-09-25T03:38:34.203Z,14.45
2022-09-25T03:41:02.526Z,15.10
2022-09-25T03:43:32.710Z,14.95
2022-09-25T03:45:59.851Z,16.35
2022-09-25T03:48:26.734Z,15.40
2022-09-25T03:50:53.686Z,14.77
2022-09-25T03:53:21.557Z,15.23
2022-09-25T03:55:49.023Z,14.88
2022-09-25T03:58:16.716Z,16.20
2022-09-25T04:00:46.059Z,16.17
2022-09-25T04:03:14.729Z,15.77
2022-09-25T04:05:43.261Z,16.05
2022-09-25T04:08:10.642Z,16.52
2022-09-25T04:10:38.886Z,15.70
2022-09-25T04:13:12.817Z,15.52
2022-09-25T04:15:43.095Z,15.48
2022-09-25T04:18:09.944Z,15.77
2022-09-25T04:20:39.946Z,16.27
2022-09-25T04:23:06.986Z,15.20
2022-09-25T04:25:33.915Z,16.00
2022-09-25T04:28:01.110Z,15.05
2022-09-25T04:30:29.659Z,14.63
2022-09-25T04:33:15.139Z,15.68
2022-09-25T04:35:42.406Z,16.45
2022-09-25T04:38:09.888Z,16.73
2022-09-25T04:40:37.752Z,16.55
2022-09-25T04:43:06.611Z,17.02
2022-09-25T04:45:37.060Z,16.10
2022-09-25T04:48:05.026Z,18.02
2022-09-25T04:50:33.588Z,18.63
2022-09-25T04:53:06.908Z,18.33
2022-09-25T04:55:34.033Z,18.25
2022-09-25T04:58:01.702Z,18.98
2022-09-25T05:00:30.831Z,17.20
2022-09-25T05:02:58.552Z,18.92
2022-09-25T05:05:28.389Z,18.10
2022-09-25T05:08:02.498Z,18.60
2022-09-25T05:10:32.456Z,18.33
2022-09-25T05:13:01.633Z,18.83
2022-09-25T05:15:31.774Z,19.85
2022-09-25T05:18:20.829Z,19.38
2022-09-25T05:20:48.719Z,18.23
2022-09-25T05:23:16.954Z,19.10
2022-09-25T05:25:43.814Z,18.02
2022-09-25T05:28:11.369Z,19.85
2022-09-25T05:30:39.680Z,19.65
2022-09-25T05:33:06.646Z,19.73
2022-09-25T05:35:36.632Z,19.33
2022-09-25T05:38:04.028Z,18.55
2022-09-25T05:40:33.637Z,17.77
2022-09-25T05:43:02.309Z,17.35
2022-09-25T05:45:32.113Z,18.25
2022-09-25T05:48:05.026Z,18.50
2022-09-25T05:50:33.084Z,18.67
2022-09-25T05:53:02.824Z,18.48
2022-09-25T05:55:30.363Z,18.33
2022-09-25T05:58:02.811Z,17.75
2022-09-25T06:00:33.077Z,17.60
2022-09-25T06:03:04.160Z,17.10
2022-09-25T06:05:33.444Z,16.90
2022-09-25T06:08:00.410Z,15.88
2022-09-25T06:10:27.636Z,15.70
2022-09-25T06:13:03.030Z,15.15
2022-09-25T06:15:36.776Z,14.35
2022-09-25T06:18:05.249Z,13.00
2022-09-25T06:20:32.674Z,14.60
2022-09-25T06:23:02.849Z,13.05
2022-09-25T06:25:36.572Z,14.25
2022-09-25T06:28:04.522Z,13.23
2022-09-25T06:30:36.721Z,12.75
2022-09-25T06:33:10.942Z,12.85
2022-09-25T06:35:44.363Z,12.52
2022-09-25T06:38:12.588Z,12.75
2022-09-25T06:40:41.383Z,13.13
2022-09-25T06:43:15.539Z,12.77
2022-09-25T06:45:43.398Z,12.00
2022-09-25T06:48:15.874Z,12.25
2022-09-25T06:50:55.207Z,11.85
2022-09-25T06:53:24.000Z,12.07
2022-09-25T06:55:51.773Z,11.90
2022-09-25T06:58:21.289Z,11.80
2022-09-25T07:00:52.192Z,11.68
2022-09-25T07:03:37.975Z,11.25
2022-09-25T07:06:07.504Z,11.32
2022-09-25T07:08:35.412Z,11.32
2022-09-25T07:11:02.852Z,11.18
2022-09-25T07:13:32.367Z,11.05
2022-09-25T07:16:01.900Z,11.05
2022-09-25T07:18:29.942Z,11.07
2022-09-25T07:21:12.724Z,10.13
2022-09-25T07:23:42.186Z,11.02
2022-09-25T07:26:14.160Z,10.30
2022-09-25T07:28:42.389Z,10.80
2022-09-25T07:31:23.111Z,10.90
2022-09-25T07:33:53.076Z,10.93
2022-09-25T07:36:20.532Z,10.70
2022-09-25T07:38:52.186Z,11.75
2022-09-25T07:41:23.791Z,10.52
2022-09-25T07:44:02.015Z,8.27
2022-09-25T07:46:44.619Z,7.85
2022-09-25T07:49:12.469Z,8.20
2022-09-25T07:51:39.845Z,8.77
2022-09-25T07:54:07.354Z,7.72
2022-09-25T07:56:34.781Z,7.18
2022-09-25T07:59:01.931Z,7.43
2022-09-25T08:01:30.222Z,6.30
2022-09-25T08:03:58.171Z,6.53
2022-09-25T08:06:25.183Z,6.68
2022-09-25T08:08:52.338Z,6.30
2022-09-25T08:11:19.755Z,6.22
2022-09-25T08:13:46.862Z,10.30
2022-09-25T08:16:17.049Z,8.95
2022-09-25T08:18:46.448Z,10.95
2022-09-25T08:21:18.081Z,9.63
2022-09-25T08:23:50.018Z,8.27
2022-09-25T08:26:18.193Z,8.55
2022-09-25T08:28:45.760Z,7.82
2022-09-25T08:31:14.669Z,7.47
2022-09-25T08:33:50.332Z,7.07
2022-09-25T08:36:18.539Z,7.25
2022-09-25T08:38:46.832Z,7.05
2022-09-25T08:41:19.244Z,6.97
2022-09-25T08:44:16.291Z,6.72
2022-09-25T08:47:12.275Z,7.93
2022-09-25T08:49:53.418Z,7.60
2022-09-25T08:52:24.222Z,8.30
2022-09-25T08:54:54.762Z,8.93
2022-09-25T08:57:43.524Z,9.38
2022-09-25T09:00:22.721Z,9.10
2022-09-25T09:02:58.343Z,8.32
2022-09-25T09:05:33.917Z,7.75
2022-09-25T09:08:02.968Z,8.05
2022-09-25T09:10:34.372Z,8.13
2022-09-25T09:13:07.765Z,7.70
2022-09-25T09:15:46.785Z,8.02
2022-09-25T09:18:20.195Z,7.93
2022-09-25T09:20:52.595Z,8.20
2022-09-25T09:23:33.060Z,8.48
2022-09-25T09:26:10.632Z,7.93
2022-09-25T09:28:57.011Z,8.48
2022-09-25T09:31:38.599Z,8.88
2022-09-25T09:35:07.068Z,8.88
2022-09-25T09:37:58.676Z,9.70
2022-09-25T09:40:48.827Z,8.43
2022-09-25T09:43:21.982Z,8.23
2022-09-25T09:46:14.350Z,9.00
2022-09-25T09:48:55.168Z,9.02
2022-09-25T09:51:32.627Z,10.25
2022-09-25T09:54:27.715Z,9.95
2022-09-25T09:56:57.673Z,8.98
2022-09-25T09:59:32.201Z,9.18
2022-09-25T10:02:34.948Z,9.25
2022-09-25T10:05:06.383Z,9.90
2022-09-25T10:07:38.768Z,9.73
2022-09-25T10:10:13.489Z,9.80
2022-09-25T10:12:48.151Z,10.25
2022-09-25T10:15:28.247Z,9.50
2022-09-25T10:18:00.699Z,9.43
2022-09-25T10:20:36.393Z,9.38
2022-09-25T10:23:06.514Z,9.63
2022-09-25T10:25:38.817Z,9.60
2022-09-25T10:28:36.035Z,9.82
2022-09-25T10:31:09.048Z,9.65
2022-09-25T10:33:37.141Z,9.65
2022-09-25T10:36:06.916Z,9.90
2022-09-25T10:38:39.085Z,9.82
2022-09-25T10:41:08.178Z,10.02
2022-09-25T10:43:58.367Z,10.45
2022-09-25T10:46:49.505Z,10.10
2022-09-25T10:49:39.612Z,10.10
2022-09-25T10:52:12.056Z,10.88
2022-09-25T10:54:44.795Z,10.00
2022-09-25T10:57:38.235Z,10.40
2022-09-25T11:00:20.567Z,10.48
2022-09-25T11:02:53.719Z,10.73
2022-09-25T11:05:30.335Z,11.68
2022-09-25T11:08:01.495Z,11.88
2022-09-25T11:10:34.166Z,11.30
2022-09-25T11:13:18.813Z,10.70
2022-09-25T11:15:53.374Z,10.63
2022-09-25T11:18:41.473Z,11.70
2022-09-25T11:21:36.464Z,9.93
2022-09-25T11:24:24.125Z,9.80
2022-09-25T11:27:07.316Z,9.25
2022-09-25T11:29:47.468Z,8.68
2022-09-25T11:32:52.615Z,10.75
2022-09-25T11:35:48.199Z,9.55
2022-09-25T11:38:58.734Z,9.40
2022-09-25T11:41:28.695Z,9.77
2022-09-25T11:44:13.442Z,10.07
2022-09-25T11:47:04.867Z,10.18
2022-09-25T11:49:38.765Z,10.00
2022-09-25T11:52:25.130Z,10.10
2022-09-25T11:55:01.794Z,10.98
2022-09-25T11:57:49.763Z,11.30
2022-09-25T12:00:41.680Z,10.57
2022-09-25T12:03:15.103Z,10.48
2022-09-25T12:06:06.140Z,11.48
2022-09-25T12:08:52.856Z,11.52
2022-09-25T12:11:51.425Z,11.82
2022-09-25T12:14:35.470Z,12.00
2022-09-25T12:17:23.337Z,12.00
2022-09-25T12:19:56.217Z,11.13
2022-09-25T12:23:03.084Z,10.98
2022-09-25T12:25:53.934Z,11.20
2022-09-25T12:28:54.963Z,10.88
2022-09-25T12:31:44.060Z,11.10
2022-09-25T12:34:29.285Z,11.43
2022-09-25T12:37:15.005Z,11.50
2022-09-25T12:39:47.754Z,12.00
2022-09-25T12:42:23.914Z,12.57
2022-09-25T12:45:14.120Z,11.63
2022-09-25T12:48:01.510Z,10.25
2022-09-25T12:50:37.421Z,9.20
2022-09-25T12:53:42.009Z,9.43
2022-09-25T12:56:16.747Z,9.48
2022-09-25T12:59:05.894Z,9.00
2022-09-25T13:01:46.794Z,9.15
2022-09-25T13:04:35.220Z,8.75
2022-09-25T13:07:29.783Z,8.38
2022-09-25T13:09:57.113Z,8.10
2022-09-25T13:12:34.745Z,7.43
2022-09-25T13:15:13.372Z,7.68
2022-09-25T13:17:41.334Z,7.60
2022-09-25T13:20:37.122Z,8.02
2022-09-25T13:23:14.343Z,8.07
2022-09-25T13:25:58.145Z,8.18
2022-09-25T13:28:30.510Z,7.88
2022-09-25T13:30:59.650Z,7.95
2022-09-25T13:33:31.404Z,8.57
2022-09-25T13:36:08.561Z,8.48
2022-09-25T13:39:03.357Z,9.75
2022-09-25T13:41:33.367Z,9.55
2022-09-25T13:44:40.730Z,9.65
2022-09-25T13:47:27.374Z,10.43
2022-09-25T13:50:04.412Z,10.88
2022-09-25T13:53:14.959Z,10.93
2022-09-25T13:55:55.045Z,11.77
2022-09-25T13:58:24.014Z,11.48
2022-09-25T14:00:56.990Z,12.38
2022-09-25T14:03:49.628Z,12.70
2022-09-25T14:06:36.890Z,12.00
2022-09-25T14:09:11.103Z,13.82
2022-09-25T14:11:44.872Z,14.00
2022-09-25T14:14:32.587Z,13.38
2022-09-25T14:17:04.397Z,13.38
2022-09-25T14:19:39.085Z,12.38
2022-09-25T14:22:12.732Z,11.50
2022-09-25T14:24:45.392Z,10.80
2022-09-25T14:27:24.036Z,10.27
2022-09-25T14:30:16.032Z,12.05
2022-09-25T14:33:05.300Z,11.20
2022-09-25T14:35:38.394Z,9.30
2022-09-25T14:38:31.551Z,9.20
2022-09-25T14:41:25.066Z,9.15
2022-09-25T14:44:25.754Z,10.25
2022-09-25T14:46:55.400Z,9.18
2022-09-25T14:49:37.653Z,8.63
2022-09-25T14:52:21.954Z,8.48
2022-09-25T14:54:51.563Z,8.77
2022-09-25T14:57:26.005Z,8.35
2022-09-25T14:59:58.460Z,8.13
2022-09-25T15:02:45.083Z,7.88
2022-09-25T15:05:37.939Z,9.27
2022-09-25T15:08:45.592Z,8.70
2022-09-25T15:11:15.918Z,8.70
2022-09-25T15:13:44.302Z,9.32
2022-09-25T15:16:38.868Z,8.65
2022-09-25T15:19:22.854Z,9.45
2022-09-25T15:21:52.321Z,20.48
2022-09-25T15:24:27.809Z,9.48
2022-09-25T15:27:03.651Z,8.93
2022-09-25T15:29:35.729Z,9.27
2022-09-25T15:32:04.016Z,8.80
2022-09-25T15:34:32.873Z,9.63
2022-09-25T15:37:25.916Z,10.43
2022-09-25T15:39:54.089Z,9.60
2022-09-25T15:42:21.975Z,9.68
2022-09-25T15:44:50.699Z,10.35
2022-09-25T15:47:53.423Z,10.32
2022-09-25T15:50:25.296Z,11.05
2022-09-25T15:52:55.825Z,10.05
2022-09-25T15:55:24.420Z,11.05
2022-09-25T15:57:54.841Z,11.38
2022-09-25T16:00:43.429Z,11.18
2022-09-25T16:03:32.693Z,11.07
2022-09-25T16:06:03.278Z,12.32
2022-09-25T16:08:36.611Z,11.02
2022-09-25T16:11:17.400Z,12.13
2022-09-25T16:13:48.784Z,11.68
2022-09-25T16:16:24.004Z,11.13
2022-09-25T16:18:54.665Z,11.57
2022-09-25T16:21:34.015Z,12.13
2022-09-25T16:24:02.546Z,10.85
2022-09-25T16:26:39.977Z,11.23
2022-09-25T16:29:13.536Z,10.93
2022-09-25T16:31:42.836Z,11.85
2022-09-25T16:34:32.043Z,11.10
2022-09-25T16:37:03.705Z,11.20
2022-09-25T16:39:33.929Z,11.18
2022-09-25T16:42:27.004Z,11.02
2022-09-25T16:45:14.937Z,10.93
2022-09-25T16:47:48.295Z,10.30
2022-09-25T16:50:20.211Z,10.23
2022-09-25T16:52:49.373Z,9.30
2022-09-25T16:55:24.713Z,8.75
2022-09-25T16:57:56.204Z,9.27
2022-09-25T17:00:29.284Z,8.70
2022-09-25T17:02:58.863Z,8.80
2022-09-25T17:05:28.453Z,9.40
2022-09-25T17:07:58.293Z,9.35
2022-09-25T17:10:32.340Z,9.20
2022-09-25T17:13:02.529Z,9.88
2022-09-25T17:15:37.967Z,9.70
2022-09-25T17:18:19.108Z,9.07
2022-09-25T17:20:47.540Z,9.85
2022-09-25T17:23:16.119Z,9.63
2022-09-25T17:25:58.257Z,9.45
2022-09-25T17:28:30.335Z,9.77
2022-09-25T17:31:01.095Z,9.75
2022-09-25T17:33:32.794Z,9.70
2022-09-25T17:36:05.203Z,9.60
2022-09-25T17:38:39.625Z,8.95
2022-09-25T17:41:17.620Z,9.70
2022-09-25T17:43:45.219Z,9.43
2022-09-25T17:46:20.665Z,8.93
2022-09-25T17:48:53.928Z,9.55
2022-09-25T17:51:25.391Z,9.47
2022-09-25T17:53:53.918Z,10.45
2022-09-25T17:56:21.503Z,10.23
2022-09-25T17:58:56.749Z,10.60
2022-09-25T18:01:27.448Z,10.35
2022-09-25T18:03:59.869Z,10.40
2022-09-25T18:06:30.596Z,10.63
2022-09-25T18:09:02.605Z,10.68
2022-09-25T18:11:30.433Z,10.43
2022-09-25T18:14:01.316Z,10.55
2022-09-25T18:16:30.985Z,10.60
2022-09-25T18:19:19.527Z,10.52
2022-09-25T18:22:05.510Z,11.10
2022-09-25T18:24:33.329Z,10.88
2022-09-25T18:27:00.641Z,9.63
2022-09-25T18:29:27.731Z,12.18
2022-09-25T18:31:55.280Z,11.50
2022-09-25T18:34:23.249Z,11.77
2022-09-25T18:36:50.391Z,11.35
2022-09-25T18:39:20.444Z,12.57
2022-09-25T18:41:49.413Z,12.15
2022-09-25T18:44:17.968Z,12.40
2022-09-25T18:46:45.663Z,12.00
2022-09-25T18:49:13.089Z,11.45
2022-09-25T18:51:40.444Z,12.20
2022-09-25T18:54:13.220Z,12.00
2022-09-25T18:56:43.089Z,11.98
2022-09-25T18:59:10.821Z,12.63
2022-09-25T19:01:39.769Z,13.18
2022-09-25T19:04:08.052Z,14.18
2022-09-25T19:06:35.321Z,13.60
2022-09-25T19:09:04.994Z,11.88
2022-09-25T19:11:32.275Z,13.23
2022-09-25T19:14:04.721Z,13.30
2022-09-25T19:16:38.252Z,14.15
2022-09-25T19:19:05.972Z,14.65
2022-09-25T19:21:33.593Z,14.38
2022-09-25T19:24:01.562Z,14.30
2022-09-25T19:26:29.227Z,14.02
2022-09-25T19:28:56.276Z,14.50
2022-09-25T19:31:27.889Z,14.75
2022-09-25T19:33:56.114Z,14.13
2022-09-25T19:36:26.971Z,15.40
2022-09-25T19:38:55.227Z,14.43
2022-09-25T19:41:31.869Z,15.13
2022-09-25T19:44:11.880Z,14.52
2022-09-25T19:46:42.600Z,14.52
2022-09-25T19:49:11.773Z,15.38
2022-09-25T19:51:40.495Z,16.25
2022-09-25T19:54:09.796Z,14.68
2022-09-25T19:56:43.406Z,14.55
2022-09-25T19:59:16.082Z,15.30
2022-09-25T20:01:43.998Z,15.63
2022-09-25T20:04:17.434Z,14.90
2022-09-25T20:06:46.119Z,16.05
2022-09-25T20:09:14.489Z,15.25
2022-09-25T20:11:41.830Z,15.32
2022-09-25T20:14:08.882Z,16.25
2022-09-25T20:16:37.788Z,16.05
2022-09-25T20:19:07.459Z,15.63
2022-09-25T20:21:39.804Z,15.93
2022-09-25T20:24:08.131Z,14.73
2022-09-25T20:26:36.605Z,14.70
2022-09-25T20:29:12.563Z,15.77
2022-09-25T20:34:17.017Z,14.52
2022-09-25T20:36:47.136Z,14.52
2022-09-25T20:39:20.742Z,13.52
2022-09-25T20:41:50.333Z,14.70
2022-09-25T20:44:17.901Z,14.45
2022-09-25T20:46:47.445Z,14.20
2022-09-25T20:49:14.964Z,14.90
2022-09-25T20:51:42.357Z,14.80
2022-09-25T20:54:10.349Z,14.07
2022-09-25T20:56:44.856Z,13.68
2022-09-25T20:59:17.914Z,14.15
2022-09-25T21:01:47.318Z,14.77
2022-09-25T21:04:18.205Z,13.90
2022-09-25T21:06:45.322Z,14.35
2022-09-25T21:09:23.205Z,14.68
2022-09-25T21:11:50.462Z,13.95
2022-09-25T21:14:24.167Z,13.70
2022-09-25T21:16:56.306Z,13.45
2022-09-25T21:19:23.640Z,13.40
2022-09-25T21:21:53.101Z,13.45
2022-09-25T21:24:21.931Z,12.45
2022-09-25T21:26:49.947Z,13.30
2022-09-25T21:29:20.060Z,13.77
2022-09-25T21:31:50.166Z,12.38
2022-09-25T21:34:19.209Z,14.25
2022-09-25T21:36:46.601Z,14.43
2022-09-25T21:39:14.092Z,13.27
2022-09-25T21:41:41.526Z,14.18
2022-09-25T21:44:13.780Z,14.70
2022-09-25T21:46:41.282Z,15.15
2022-09-25T21:49:14.603Z,14.40
2022-09-25T21:51:44.093Z,14.88
2022-09-25T21:54:12.842Z,15.73
2022-09-25T21:56:40.520Z,15.70
2022-09-25T21:59:09.311Z,17.65
2022-09-25T22:01:39.946Z,17.95
2022-09-25T22:04:10.677Z,17.55
2022-09-25T22:06:44.551Z,17.23
2022-09-25T22:09:18.130Z,16.77
2022-09-25T22:11:47.995Z,18.77
2022-09-25T22:14:16.702Z,19.17
2022-09-25T22:16:47.394Z,20.60
2022-09-25T22:19:19.563Z,20.92
2022-09-25T22:21:48.844Z,18.65
2022-09-25T22:24:16.090Z,21.05
2022-09-25T22:26:46.592Z,22.02
2022-09-25T22:29:15.269Z,22.15
2022-09-25T22:31:43.641Z,23.33
2022-09-25T22:34:21.885Z,22.27
2022-09-25T22:36:54.885Z,21.35
2022-09-25T22:39:25.706Z,22.42
2022-09-25T22:41:56.858Z,21.73
2022-09-25T22:44:24.265Z,21.15
2022-09-25T22:46:51.402Z,22.33
2022-09-25T22:49:18.569Z,21.67
2022-09-25T22:51:45.708Z,22.65
2022-09-25T22:54:14.642Z,23.33
2022-09-25T22:56:42.890Z,23.42
2022-09-25T22:59:18.094Z,22.88
2022-09-25T23:01:49.113Z,23.95
2022-09-25T23:04:19.617Z,25.58
2022-09-25T23:06:47.332Z,26.20
2022-09-25T23:09:17.199Z,26.30
2022-09-25T23:11:44.356Z,25.60
2022-09-25T23:14:16.822Z,26.98
2022-09-25T23:16:45.488Z,26.67
2022-09-25T23:19:13.451Z,27.98
2022-09-25T23:21:40.532Z,27.05
2022-09-25T23:24:11.096Z,28.15
2022-09-25T23:26:41.810Z,28.10
2022-09-25T23:29:11.950Z,27.95
2022-09-25T23:31:39.302Z,29.40
2022-09-25T23:34:06.193Z,28.42
2022-09-25T23:36:33.046Z,29.58
2022-09-25T23:39:01.216Z,29.35
2022-09-25T23:41:33.682Z,29.02
2022-09-25T23:44:02.949Z,28.77
2022-09-25T23:46:34.956Z,29.70
2022-09-25T23:49:02.459Z,29.65
2022-09-25T23:51:29.394Z,29.38
2022-09-25T23:53:58.716Z,27.92
2022-09-25T23:56:27.952Z,29.65
2022-09-25T23:58:58.990Z,29.40
